sensor_id;sensor_type;location;lat;lon;timestamp;temperature;humidity
57242;DHT22;43095;53.302;5.786;2024-03-22T00:01:52;9.40;99.90
57242;DHT22;43095;53.302;5.786;2024-03-22T00:04:19;9.40;99.90
57242;DHT22;43095;53.302;5.786;2024-03-22T00:06:47;9.40;99.90
57242;DHT22;43095;53.302;5.786;2024-03-22T00:09:14;9.40;99.90
57242;DHT22;43095;53.302;5.786;2024-03-22T00:11:41;9.40;99.90
57242;DHT22;43095;53.302;5.786;2024-03-22T00:14:09;9.50;99.90
57242;DHT22;43095;53.302;5.786;2024-03-22T00:16:39;9.50;99.90
57242;DHT22;43095;53.302;5.786;2024-03-22T00:19:05;9.50;99.90
57242;DHT22;43095;53.302;5.786;2024-03-22T00:21:31;9.50;99.90
57242;DHT22;43095;53.302;5.786;2024-03-22T00:23:58;9.50;99.90
57242;DHT22;43095;53.302;5.786;2024-03-22T00:26:26;9.50;99.90
57242;DHT22;43095;53.302;5.786;2024-03-22T00:28:53;9.50;99.90
57242;DHT22;43095;53.302;5.786;2024-03-22T00:31:19;9.50;99.90
57242;DHT22;43095;53.302;5.786;2024-03-22T00:33:45;9.50;99.90
57242;DHT22;43095;53.302;5.786;2024-03-22T00:36:12;9.60;99.90
57242;DHT22;43095;53.302;5.786;2024-03-22T00:38:38;9.60;99.90
57242;DHT22;43095;53.302;5.786;2024-03-22T00:41:04;9.60;99.90
57242;DHT22;43095;53.302;5.786;2024-03-22T00:43:30;9.60;99.90
57242;DHT22;43095;53.302;5.786;2024-03-22T00:45:56;9.70;99.90
57242;DHT22;43095;53.302;5.786;2024-03-22T00:48:24;9.70;99.90
57242;DHT22;43095;53.302;5.786;2024-03-22T00:50:50;9.70;99.90
57242;DHT22;43095;53.302;5.786;2024-03-22T00:53:16;9.70;99.90
57242;DHT22;43095;53.302;5.786;2024-03-22T00:55:43;9.80;99.90
57242;DHT22;43095;53.302;5.786;2024-03-22T00:58:09;9.80;99.90
57242;DHT22;43095;53.302;5.786;2024-03-22T01:00:35;9.80;99.90
57242;DHT22;43095;53.302;5.786;2024-03-22T01:03:03;9.90;99.90
57242;DHT22;43095;53.302;5.786;2024-03-22T01:05:30;9.90;99.90
57242;DHT22;43095;53.302;5.786;2024-03-22T01:07:56;10.00;99.90
57242;DHT22;43095;53.302;5.786;2024-03-22T01:10:22;10.00;99.90
57242;DHT22;43095;53.302;5.786;2024-03-22T01:12:48;10.00;99.90
57242;DHT22;43095;53.302;5.786;2024-03-22T01:15:15;10.10;99.90
57242;DHT22;43095;53.302;5.786;2024-03-22T01:17:41;10.10;99.90
57242;DHT22;43095;53.302;5.786;2024-03-22T01:20:08;10.10;99.90
57242;DHT22;43095;53.302;5.786;2024-03-22T01:22:34;10.20;99.90
57242;DHT22;43095;53.302;5.786;2024-03-22T01:25:00;10.20;99.90
57242;DHT22;43095;53.302;5.786;2024-03-22T01:27:27;10.20;99.90
57242;DHT22;43095;53.302;5.786;2024-03-22T01:29:53;10.20;99.90
57242;DHT22;43095;53.302;5.786;2024-03-22T01:32:19;10.20;99.90
57242;DHT22;43095;53.302;5.786;2024-03-22T01:34:45;10.20;99.90
57242;DHT22;43095;53.302;5.786;2024-03-22T01:37:11;10.20;99.90
57242;DHT22;43095;53.302;5.786;2024-03-22T01:39:38;10.20;99.90
57242;DHT22;43095;53.302;5.786;2024-03-22T01:42:04;10.20;99.90
57242;DHT22;43095;53.302;5.786;2024-03-22T01:44:31;10.20;99.90
57242;DHT22;43095;53.302;5.786;2024-03-22T01:46:59;10.20;99.90
57242;DHT22;43095;53.302;5.786;2024-03-22T01:49:25;10.20;99.90
57242;DHT22;43095;53.302;5.786;2024-03-22T01:51:52;10.20;99.90
57242;DHT22;43095;53.302;5.786;2024-03-22T01:54:20;10.10;99.90
57242;DHT22;43095;53.302;5.786;2024-03-22T01:56:47;10.10;99.90
57242;DHT22;43095;53.302;5.786;2024-03-22T01:59:14;10.10;99.90
57242;DHT22;43095;53.302;5.786;2024-03-22T02:01:41;10.10;99.90
57242;DHT22;43095;53.302;5.786;2024-03-22T02:04:08;10.00;99.90
57242;DHT22;43095;53.302;5.786;2024-03-22T02:06:35;10.00;99.90
57242;DHT22;43095;53.302;5.786;2024-03-22T02:09:01;10.00;99.90
57242;DHT22;43095;53.302;5.786;2024-03-22T02:11:30;10.00;99.90
57242;DHT22;43095;53.302;5.786;2024-03-22T02:13:57;10.00;99.90
57242;DHT22;43095;53.302;5.786;2024-03-22T02:16:23;10.00;99.90
57242;DHT22;43095;53.302;5.786;2024-03-22T02:18:50;10.00;99.90
57242;DHT22;43095;53.302;5.786;2024-03-22T02:21:16;10.00;99.90
57242;DHT22;43095;53.302;5.786;2024-03-22T02:23:42;10.00;99.90
57242;DHT22;43095;53.302;5.786;2024-03-22T02:26:08;10.00;99.90
57242;DHT22;43095;53.302;5.786;2024-03-22T02:28:35;10.00;99.90
57242;DHT22;43095;53.302;5.786;2024-03-22T02:31:02;9.90;99.90
57242;DHT22;43095;53.302;5.786;2024-03-22T02:33:29;9.90;99.90
57242;DHT22;43095;53.302;5.786;2024-03-22T02:35:56;9.90;99.90
57242;DHT22;43095;53.302;5.786;2024-03-22T02:38:22;9.90;99.90
57242;DHT22;43095;53.302;5.786;2024-03-22T02:40:50;9.90;99.90
57242;DHT22;43095;53.302;5.786;2024-03-22T02:43:18;9.80;99.90
57242;DHT22;43095;53.302;5.786;2024-03-22T02:45:46;9.80;99.90
57242;DHT22;43095;53.302;5.786;2024-03-22T02:48:13;9.80;99.90
57242;DHT22;43095;53.302;5.786;2024-03-22T02:50:39;9.80;99.90
57242;DHT22;43095;53.302;5.786;2024-03-22T02:53:06;9.80;99.90
57242;DHT22;43095;53.302;5.786;2024-03-22T02:55:41;9.80;99.90
57242;DHT22;43095;53.302;5.786;2024-03-22T02:58:08;9.80;99.90
57242;DHT22;43095;53.302;5.786;2024-03-22T03:00:38;9.80;99.90
57242;DHT22;43095;53.302;5.786;2024-03-22T03:03:05;9.80;99.90
57242;DHT22;43095;53.302;5.786;2024-03-22T03:05:31;9.80;99.90
57242;DHT22;43095;53.302;5.786;2024-03-22T03:07:58;9.80;99.90
57242;DHT22;43095;53.302;5.786;2024-03-22T03:10:24;9.80;99.90
57242;DHT22;43095;53.302;5.786;2024-03-22T03:12:53;9.80;99.90
57242;DHT22;43095;53.302;5.786;2024-03-22T03:15:20;9.80;99.90
57242;DHT22;43095;53.302;5.786;2024-03-22T03:17:46;9.80;99.90
57242;DHT22;43095;53.302;5.786;2024-03-22T03:20:12;9.80;99.90
57242;DHT22;43095;53.302;5.786;2024-03-22T03:22:40;9.80;99.90
57242;DHT22;43095;53.302;5.786;2024-03-22T03:25:07;9.80;99.90
57242;DHT22;43095;53.302;5.786;2024-03-22T03:27:34;9.70;99.90
57242;DHT22;43095;53.302;5.786;2024-03-22T03:30:00;9.80;99.90
57242;DHT22;43095;53.302;5.786;2024-03-22T03:32:27;9.70;99.90
57242;DHT22;43095;53.302;5.786;2024-03-22T03:34:54;9.70;99.90
57242;DHT22;43095;53.302;5.786;2024-03-22T03:37:20;9.70;99.90
57242;DHT22;43095;53.302;5.786;2024-03-22T03:39:47;9.70;99.90
57242;DHT22;43095;53.302;5.786;2024-03-22T03:42:13;9.70;99.90
57242;DHT22;43095;53.302;5.786;2024-03-22T03:44:39;9.70;99.90
57242;DHT22;43095;53.302;5.786;2024-03-22T03:47:07;9.70;99.90
57242;DHT22;43095;53.302;5.786;2024-03-22T03:49:34;9.70;99.90
57242;DHT22;43095;53.302;5.786;2024-03-22T03:52:00;9.70;99.90
57242;DHT22;43095;53.302;5.786;2024-03-22T03:54:26;9.70;99.90
57242;DHT22;43095;53.302;5.786;2024-03-22T03:56:54;9.70;99.90
57242;DHT22;43095;53.302;5.786;2024-03-22T03:59:20;9.70;99.90
57242;DHT22;43095;53.302;5.786;2024-03-22T04:01:46;9.60;99.90
57242;DHT22;43095;53.302;5.786;2024-03-22T04:04:13;9.70;99.90
57242;DHT22;43095;53.302;5.786;2024-03-22T04:06:39;9.70;99.90
57242;DHT22;43095;53.302;5.786;2024-03-22T04:09:05;9.60;99.90
57242;DHT22;43095;53.302;5.786;2024-03-22T04:11:31;9.60;99.90
57242;DHT22;43095;53.302;5.786;2024-03-22T04:13:58;9.60;99.90
57242;DHT22;43095;53.302;5.786;2024-03-22T04:16:24;9.60;99.90
57242;DHT22;43095;53.302;5.786;2024-03-22T04:18:50;9.60;99.90
57242;DHT22;43095;53.302;5.786;2024-03-22T04:21:17;9.60;99.90
57242;DHT22;43095;53.302;5.786;2024-03-22T04:23:43;9.60;99.90
57242;DHT22;43095;53.302;5.786;2024-03-22T04:26:10;9.60;99.90
57242;DHT22;43095;53.302;5.786;2024-03-22T04:28:36;9.60;99.90
57242;DHT22;43095;53.302;5.786;2024-03-22T04:31:07;9.60;99.90
57242;DHT22;43095;53.302;5.786;2024-03-22T04:33:35;9.60;99.90
57242;DHT22;43095;53.302;5.786;2024-03-22T04:36:03;9.60;99.90
57242;DHT22;43095;53.302;5.786;2024-03-22T04:38:30;9.60;99.90
57242;DHT22;43095;53.302;5.786;2024-03-22T04:40:57;9.60;99.90
57242;DHT22;43095;53.302;5.786;2024-03-22T04:43:24;9.60;99.90
57242;DHT22;43095;53.302;5.786;2024-03-22T04:45:51;9.60;99.90
57242;DHT22;43095;53.302;5.786;2024-03-22T04:48:19;9.60;99.90
57242;DHT22;43095;53.302;5.786;2024-03-22T04:50:50;9.60;99.90
57242;DHT22;43095;53.302;5.786;2024-03-22T04:53:18;9.50;99.90
57242;DHT22;43095;53.302;5.786;2024-03-22T04:55:47;9.50;99.90
57242;DHT22;43095;53.302;5.786;2024-03-22T04:58:14;9.60;99.90
57242;DHT22;43095;53.302;5.786;2024-03-22T05:00:42;9.50;99.90
57242;DHT22;43095;53.302;5.786;2024-03-22T05:03:09;9.50;99.90
57242;DHT22;43095;53.302;5.786;2024-03-22T05:05:35;9.50;99.90
57242;DHT22;43095;53.302;5.786;2024-03-22T05:08:02;9.50;99.90
57242;DHT22;43095;53.302;5.786;2024-03-22T05:10:29;9.50;99.90
57242;DHT22;43095;53.302;5.786;2024-03-22T05:12:56;9.40;99.90
57242;DHT22;43095;53.302;5.786;2024-03-22T05:15:23;9.40;99.90
57242;DHT22;43095;53.302;5.786;2024-03-22T05:17:51;9.40;99.90
57242;DHT22;43095;53.302;5.786;2024-03-22T05:20:19;9.40;99.90
57242;DHT22;43095;53.302;5.786;2024-03-22T05:22:47;9.40;99.90
57242;DHT22;43095;53.302;5.786;2024-03-22T05:25:13;9.40;99.90
57242;DHT22;43095;53.302;5.786;2024-03-22T05:27:41;9.40;99.90
57242;DHT22;43095;53.302;5.786;2024-03-22T05:30:10;9.30;99.90
57242;DHT22;43095;53.302;5.786;2024-03-22T05:32:37;9.30;99.90
57242;DHT22;43095;53.302;5.786;2024-03-22T05:35:04;9.30;99.90
57242;DHT22;43095;53.302;5.786;2024-03-22T05:37:31;9.20;99.90
57242;DHT22;43095;53.302;5.786;2024-03-22T05:39:57;9.20;99.90
57242;DHT22;43095;53.302;5.786;2024-03-22T05:42:23;9.20;99.90
57242;DHT22;43095;53.302;5.786;2024-03-22T05:44:49;9.20;99.90
57242;DHT22;43095;53.302;5.786;2024-03-22T05:47:15;9.20;99.90
57242;DHT22;43095;53.302;5.786;2024-03-22T05:49:42;9.20;99.90
57242;DHT22;43095;53.302;5.786;2024-03-22T05:52:08;9.20;99.90
57242;DHT22;43095;53.302;5.786;2024-03-22T05:54:34;9.20;99.90
57242;DHT22;43095;53.302;5.786;2024-03-22T05:57:02;9.20;99.90
57242;DHT22;43095;53.302;5.786;2024-03-22T05:59:28;9.10;99.90
57242;DHT22;43095;53.302;5.786;2024-03-22T06:01:54;9.10;99.90
57242;DHT22;43095;53.302;5.786;2024-03-22T06:04:20;9.10;99.90
57242;DHT22;43095;53.302;5.786;2024-03-22T06:06:46;9.10;99.90
57242;DHT22;43095;53.302;5.786;2024-03-22T06:09:13;9.10;99.90
57242;DHT22;43095;53.302;5.786;2024-03-22T06:11:45;9.00;99.90
57242;DHT22;43095;53.302;5.786;2024-03-22T06:14:11;9.00;99.90
57242;DHT22;43095;53.302;5.786;2024-03-22T06:16:37;9.00;99.90
57242;DHT22;43095;53.302;5.786;2024-03-22T06:19:03;9.00;99.90
57242;DHT22;43095;53.302;5.786;2024-03-22T06:21:29;9.00;99.90
57242;DHT22;43095;53.302;5.786;2024-03-22T06:23:55;9.00;99.90
57242;DHT22;43095;53.302;5.786;2024-03-22T06:26:22;8.90;99.90
57242;DHT22;43095;53.302;5.786;2024-03-22T06:28:48;8.90;99.90
57242;DHT22;43095;53.302;5.786;2024-03-22T06:31:14;8.90;99.90
57242;DHT22;43095;53.302;5.786;2024-03-22T06:33:40;8.90;99.90
57242;DHT22;43095;53.302;5.786;2024-03-22T06:36:07;8.90;99.90
57242;DHT22;43095;53.302;5.786;2024-03-22T06:38:34;8.90;99.90
57242;DHT22;43095;53.302;5.786;2024-03-22T06:41:00;8.90;99.90
57242;DHT22;43095;53.302;5.786;2024-03-22T06:43:26;8.90;99.90
57242;DHT22;43095;53.302;5.786;2024-03-22T06:45:52;9.00;99.90
57242;DHT22;43095;53.302;5.786;2024-03-22T06:48:18;9.00;99.90
57242;DHT22;43095;53.302;5.786;2024-03-22T06:50:44;8.90;99.90
57242;DHT22;43095;53.302;5.786;2024-03-22T06:53:11;8.90;99.90
57242;DHT22;43095;53.302;5.786;2024-03-22T06:55:38;8.90;99.90
57242;DHT22;43095;53.302;5.786;2024-03-22T06:58:04;8.90;99.90
57242;DHT22;43095;53.302;5.786;2024-03-22T07:00:30;8.90;99.90
57242;DHT22;43095;53.302;5.786;2024-03-22T07:02:56;8.90;99.90
57242;DHT22;43095;53.302;5.786;2024-03-22T07:05:23;8.90;99.90
57242;DHT22;43095;53.302;5.786;2024-03-22T07:07:49;8.90;99.90
57242;DHT22;43095;53.302;5.786;2024-03-22T07:10:21;8.90;99.90
57242;DHT22;43095;53.302;5.786;2024-03-22T07:12:49;8.90;99.90
57242;DHT22;43095;53.302;5.786;2024-03-22T07:15:15;8.90;99.90
57242;DHT22;43095;53.302;5.786;2024-03-22T07:17:41;8.90;99.90
57242;DHT22;43095;53.302;5.786;2024-03-22T07:20:07;8.90;99.90
57242;DHT22;43095;53.302;5.786;2024-03-22T07:22:34;8.90;99.90
57242;DHT22;43095;53.302;5.786;2024-03-22T07:25:00;8.90;99.90
57242;DHT22;43095;53.302;5.786;2024-03-22T07:27:27;8.90;99.90
57242;DHT22;43095;53.302;5.786;2024-03-22T07:29:55;8.90;99.90
57242;DHT22;43095;53.302;5.786;2024-03-22T07:32:21;8.80;99.90
57242;DHT22;43095;53.302;5.786;2024-03-22T07:34:48;8.80;99.90
57242;DHT22;43095;53.302;5.786;2024-03-22T07:37:14;8.80;99.90
57242;DHT22;43095;53.302;5.786;2024-03-22T07:39:40;8.80;99.90
57242;DHT22;43095;53.302;5.786;2024-03-22T07:42:07;8.80;99.90
57242;DHT22;43095;53.302;5.786;2024-03-22T07:44:33;8.80;99.90
57242;DHT22;43095;53.302;5.786;2024-03-22T07:46:59;8.80;99.90
57242;DHT22;43095;53.302;5.786;2024-03-22T07:49:25;8.80;99.90
57242;DHT22;43095;53.302;5.786;2024-03-22T07:51:51;8.80;99.90
57242;DHT22;43095;53.302;5.786;2024-03-22T07:54:19;8.80;99.90
57242;DHT22;43095;53.302;5.786;2024-03-22T07:56:46;8.80;99.90
57242;DHT22;43095;53.302;5.786;2024-03-22T07:59:12;8.80;99.90
57242;DHT22;43095;53.302;5.786;2024-03-22T08:01:39;8.80;99.90
57242;DHT22;43095;53.302;5.786;2024-03-22T08:04:05;8.80;99.90
57242;DHT22;43095;53.302;5.786;2024-03-22T08:06:32;8.80;99.90
57242;DHT22;43095;53.302;5.786;2024-03-22T08:08:58;8.80;99.90
57242;DHT22;43095;53.302;5.786;2024-03-22T08:11:24;8.80;99.90
57242;DHT22;43095;53.302;5.786;2024-03-22T08:13:50;8.80;99.90
57242;DHT22;43095;53.302;5.786;2024-03-22T08:16:16;8.80;99.90
57242;DHT22;43095;53.302;5.786;2024-03-22T08:18:43;8.80;99.90
57242;DHT22;43095;53.302;5.786;2024-03-22T08:21:09;8.80;99.90
57242;DHT22;43095;53.302;5.786;2024-03-22T08:23:35;8.80;99.90
57242;DHT22;43095;53.302;5.786;2024-03-22T08:26:01;8.80;99.90
57242;DHT22;43095;53.302;5.786;2024-03-22T08:28:28;8.80;99.90
57242;DHT22;43095;53.302;5.786;2024-03-22T08:30:54;8.80;99.90
57242;DHT22;43095;53.302;5.786;2024-03-22T08:33:20;8.80;99.90
57242;DHT22;43095;53.302;5.786;2024-03-22T08:35:46;8.80;99.90
57242;DHT22;43095;53.302;5.786;2024-03-22T08:38:14;8.80;99.90
57242;DHT22;43095;53.302;5.786;2024-03-22T08:40:40;8.80;99.90
57242;DHT22;43095;53.302;5.786;2024-03-22T08:43:07;8.80;99.90
57242;DHT22;43095;53.302;5.786;2024-03-22T08:45:34;8.80;99.90
57242;DHT22;43095;53.302;5.786;2024-03-22T08:48:00;8.80;99.90
57242;DHT22;43095;53.302;5.786;2024-03-22T08:50:27;8.80;99.90
57242;DHT22;43095;53.302;5.786;2024-03-22T08:52:53;8.80;99.90
57242;DHT22;43095;53.302;5.786;2024-03-22T08:55:19;8.80;99.90
57242;DHT22;43095;53.302;5.786;2024-03-22T08:57:46;8.80;99.90
57242;DHT22;43095;53.302;5.786;2024-03-22T09:00:12;8.80;99.90
57242;DHT22;43095;53.302;5.786;2024-03-22T09:02:38;8.80;99.90
57242;DHT22;43095;53.302;5.786;2024-03-22T09:05:05;8.80;99.90
57242;DHT22;43095;53.302;5.786;2024-03-22T09:07:32;8.80;99.90
57242;DHT22;43095;53.302;5.786;2024-03-22T09:09:58;8.80;99.90
57242;DHT22;43095;53.302;5.786;2024-03-22T09:12:24;8.80;99.90
57242;DHT22;43095;53.302;5.786;2024-03-22T09:14:51;8.80;99.90
57242;DHT22;43095;53.302;5.786;2024-03-22T09:17:17;8.80;99.90
57242;DHT22;43095;53.302;5.786;2024-03-22T09:19:43;8.80;99.90
57242;DHT22;43095;53.302;5.786;2024-03-22T09:22:10;8.80;99.90
57242;DHT22;43095;53.302;5.786;2024-03-22T09:24:36;8.80;99.90
57242;DHT22;43095;53.302;5.786;2024-03-22T09:27:03;8.80;99.90
57242;DHT22;43095;53.302;5.786;2024-03-22T09:29:35;8.90;99.90
57242;DHT22;43095;53.302;5.786;2024-03-22T09:32:02;8.90;99.90
57242;DHT22;43095;53.302;5.786;2024-03-22T09:34:28;9.00;99.90
57242;DHT22;43095;53.302;5.786;2024-03-22T09:36:58;9.00;99.90
57242;DHT22;43095;53.302;5.786;2024-03-22T09:39:24;9.00;99.90
57242;DHT22;43095;53.302;5.786;2024-03-22T09:41:56;9.00;99.90
57242;DHT22;43095;53.302;5.786;2024-03-22T09:44:23;9.00;99.90
57242;DHT22;43095;53.302;5.786;2024-03-22T09:46:55;9.00;99.90
57242;DHT22;43095;53.302;5.786;2024-03-22T09:49:22;9.00;99.90
57242;DHT22;43095;53.302;5.786;2024-03-22T09:51:51;9.00;99.90
57242;DHT22;43095;53.302;5.786;2024-03-22T09:54:18;9.00;99.90
57242;DHT22;43095;53.302;5.786;2024-03-22T09:56:47;9.00;99.90
57242;DHT22;43095;53.302;5.786;2024-03-22T09:59:14;9.00;99.90
57242;DHT22;43095;53.302;5.786;2024-03-22T10:01:41;9.00;99.90
57242;DHT22;43095;53.302;5.786;2024-03-22T10:04:09;8.90;99.90
57242;DHT22;43095;53.302;5.786;2024-03-22T10:06:37;8.90;99.90
57242;DHT22;43095;53.302;5.786;2024-03-22T10:09:05;9.00;99.90
57242;DHT22;43095;53.302;5.786;2024-03-22T10:11:31;8.90;99.90
57242;DHT22;43095;53.302;5.786;2024-03-22T10:14:00;8.90;99.90
57242;DHT22;43095;53.302;5.786;2024-03-22T10:16:26;8.90;99.90
57242;DHT22;43095;53.302;5.786;2024-03-22T10:18:54;8.90;99.90
57242;DHT22;43095;53.302;5.786;2024-03-22T10:21:20;8.90;99.90
57242;DHT22;43095;53.302;5.786;2024-03-22T10:23:47;8.90;99.90
57242;DHT22;43095;53.302;5.786;2024-03-22T10:26:14;8.90;99.90
57242;DHT22;43095;53.302;5.786;2024-03-22T10:28:47;8.90;99.90
57242;DHT22;43095;53.302;5.786;2024-03-22T10:31:14;8.90;99.90
57242;DHT22;43095;53.302;5.786;2024-03-22T10:33:44;8.80;99.90
57242;DHT22;43095;53.302;5.786;2024-03-22T10:36:11;8.80;99.90
57242;DHT22;43095;53.302;5.786;2024-03-22T10:38:39;8.80;99.90
57242;DHT22;43095;53.302;5.786;2024-03-22T10:41:06;8.80;99.90
57242;DHT22;43095;53.302;5.786;2024-03-22T10:43:32;8.80;99.90
57242;DHT22;43095;53.302;5.786;2024-03-22T10:46:02;8.80;99.90
57242;DHT22;43095;53.302;5.786;2024-03-22T10:48:32;8.80;99.90
57242;DHT22;43095;53.302;5.786;2024-03-22T10:51:00;8.80;99.90
57242;DHT22;43095;53.302;5.786;2024-03-22T10:53:30;8.80;99.90
57242;DHT22;43095;53.302;5.786;2024-03-22T10:55:58;8.80;99.90
57242;DHT22;43095;53.302;5.786;2024-03-22T10:58:27;8.80;99.90
57242;DHT22;43095;53.302;5.786;2024-03-22T11:00:56;8.80;99.90
57242;DHT22;43095;53.302;5.786;2024-03-22T11:03:24;8.80;99.90
57242;DHT22;43095;53.302;5.786;2024-03-22T11:05:56;8.80;99.90
57242;DHT22;43095;53.302;5.786;2024-03-22T11:08:27;8.90;99.90
57242;DHT22;43095;53.302;5.786;2024-03-22T11:10:56;8.90;99.90
57242;DHT22;43095;53.302;5.786;2024-03-22T11:13:23;8.90;99.90
57242;DHT22;43095;53.302;5.786;2024-03-22T11:15:50;8.90;99.90
57242;DHT22;43095;53.302;5.786;2024-03-22T11:18:20;8.90;99.90
57242;DHT22;43095;53.302;5.786;2024-03-22T11:20:46;8.90;99.90
57242;DHT22;43095;53.302;5.786;2024-03-22T11:23:13;8.90;99.90
57242;DHT22;43095;53.302;5.786;2024-03-22T11:25:41;9.00;99.90
57242;DHT22;43095;53.302;5.786;2024-03-22T11:28:07;9.00;99.90
57242;DHT22;43095;53.302;5.786;2024-03-22T11:30:34;9.00;99.90
57242;DHT22;43095;53.302;5.786;2024-03-22T11:33:04;9.00;99.90
57242;DHT22;43095;53.302;5.786;2024-03-22T11:35:34;9.10;99.90
57242;DHT22;43095;53.302;5.786;2024-03-22T11:38:00;9.10;99.90
57242;DHT22;43095;53.302;5.786;2024-03-22T11:40:27;9.10;99.90
57242;DHT22;43095;53.302;5.786;2024-03-22T11:42:56;9.20;99.90
57242;DHT22;43095;53.302;5.786;2024-03-22T11:45:23;9.20;99.90
57242;DHT22;43095;53.302;5.786;2024-03-22T11:47:50;9.20;99.90
57242;DHT22;43095;53.302;5.786;2024-03-22T11:50:17;9.30;99.90
57242;DHT22;43095;53.302;5.786;2024-03-22T11:52:44;9.40;99.90
57242;DHT22;43095;53.302;5.786;2024-03-22T11:55:14;9.40;99.90
57242;DHT22;43095;53.302;5.786;2024-03-22T11:57:41;9.40;99.90
57242;DHT22;43095;53.302;5.786;2024-03-22T12:00:08;9.40;99.90
57242;DHT22;43095;53.302;5.786;2024-03-22T12:02:38;9.40;99.90
57242;DHT22;43095;53.302;5.786;2024-03-22T12:05:05;9.40;99.90
57242;DHT22;43095;53.302;5.786;2024-03-22T12:07:31;9.40;99.90
57242;DHT22;43095;53.302;5.786;2024-03-22T12:09:58;9.50;99.90
57242;DHT22;43095;53.302;5.786;2024-03-22T12:12:25;9.60;99.90
57242;DHT22;43095;53.302;5.786;2024-03-22T12:14:52;9.60;99.90
57242;DHT22;43095;53.302;5.786;2024-03-22T12:17:19;9.60;99.90
57242;DHT22;43095;53.302;5.786;2024-03-22T12:19:45;9.60;99.90
57242;DHT22;43095;53.302;5.786;2024-03-22T12:22:11;9.60;99.90
57242;DHT22;43095;53.302;5.786;2024-03-22T12:24:37;9.60;99.90
57242;DHT22;43095;53.302;5.786;2024-03-22T12:27:04;9.60;99.90
57242;DHT22;43095;53.302;5.786;2024-03-22T12:29:34;9.70;99.90
57242;DHT22;43095;53.302;5.786;2024-03-22T12:32:02;9.60;99.90
57242;DHT22;43095;53.302;5.786;2024-03-22T12:34:32;9.60;99.90
57242;DHT22;43095;53.302;5.786;2024-03-22T12:36:59;9.50;99.90
57242;DHT22;43095;53.302;5.786;2024-03-22T12:39:26;9.40;99.90
57242;DHT22;43095;53.302;5.786;2024-03-22T12:41:52;9.40;99.90
57242;DHT22;43095;53.302;5.786;2024-03-22T12:44:20;9.30;99.90
57242;DHT22;43095;53.302;5.786;2024-03-22T12:46:47;9.20;99.90
57242;DHT22;43095;53.302;5.786;2024-03-22T12:49:14;9.20;99.90
57242;DHT22;43095;53.302;5.786;2024-03-22T12:51:40;9.20;99.90
57242;DHT22;43095;53.302;5.786;2024-03-22T12:54:09;9.10;99.90
57242;DHT22;43095;53.302;5.786;2024-03-22T12:56:35;9.20;99.90
57242;DHT22;43095;53.302;5.786;2024-03-22T12:59:02;9.20;99.90
57242;DHT22;43095;53.302;5.786;2024-03-22T13:01:29;9.20;99.90
57242;DHT22;43095;53.302;5.786;2024-03-22T13:03:55;9.20;99.90
57242;DHT22;43095;53.302;5.786;2024-03-22T13:06:22;9.20;99.90
57242;DHT22;43095;53.302;5.786;2024-03-22T13:08:48;9.20;99.90
57242;DHT22;43095;53.302;5.786;2024-03-22T13:11:15;9.20;99.90
57242;DHT22;43095;53.302;5.786;2024-03-22T13:13:43;9.20;99.90
57242;DHT22;43095;53.302;5.786;2024-03-22T13:16:09;9.20;99.90
57242;DHT22;43095;53.302;5.786;2024-03-22T13:18:41;9.10;99.90
57242;DHT22;43095;53.302;5.786;2024-03-22T13:21:08;9.10;99.90
57242;DHT22;43095;53.302;5.786;2024-03-22T13:23:34;9.00;99.90
57242;DHT22;43095;53.302;5.786;2024-03-22T13:26:05;9.00;99.90
57242;DHT22;43095;53.302;5.786;2024-03-22T13:28:32;9.00;99.90
57242;DHT22;43095;53.302;5.786;2024-03-22T13:31:00;9.00;99.90
57242;DHT22;43095;53.302;5.786;2024-03-22T13:33:33;9.00;99.90
57242;DHT22;43095;53.302;5.786;2024-03-22T13:36:00;9.00;99.90
57242;DHT22;43095;53.302;5.786;2024-03-22T13:38:26;9.00;99.90
57242;DHT22;43095;53.302;5.786;2024-03-22T13:40:57;9.00;99.90
57242;DHT22;43095;53.302;5.786;2024-03-22T13:43:26;9.00;99.90
57242;DHT22;43095;53.302;5.786;2024-03-22T13:45:53;9.00;99.90
57242;DHT22;43095;53.302;5.786;2024-03-22T13:48:24;9.00;99.90
57242;DHT22;43095;53.302;5.786;2024-03-22T13:50:52;9.00;99.90
57242;DHT22;43095;53.302;5.786;2024-03-22T13:53:19;9.10;99.90
57242;DHT22;43095;53.302;5.786;2024-03-22T13:55:48;9.20;99.90
57242;DHT22;43095;53.302;5.786;2024-03-22T13:58:15;9.20;99.90
57242;DHT22;43095;53.302;5.786;2024-03-22T14:00:42;9.20;99.90
57242;DHT22;43095;53.302;5.786;2024-03-22T14:03:08;9.20;99.90
57242;DHT22;43095;53.302;5.786;2024-03-22T14:05:34;9.20;98.60
57242;DHT22;43095;53.302;5.786;2024-03-22T14:08:01;9.10;96.80
57242;DHT22;43095;53.302;5.786;2024-03-22T14:10:27;9.20;97.80
57242;DHT22;43095;53.302;5.786;2024-03-22T14:12:55;9.10;97.30
57242;DHT22;43095;53.302;5.786;2024-03-22T14:15:21;9.10;96.20
57242;DHT22;43095;53.302;5.786;2024-03-22T14:17:51;9.00;96.20
57242;DHT22;43095;53.302;5.786;2024-03-22T14:20:17;9.00;97.00
57242;DHT22;43095;53.302;5.786;2024-03-22T14:22:45;9.00;96.80
57242;DHT22;43095;53.302;5.786;2024-03-22T14:25:11;9.10;96.80
57242;DHT22;43095;53.302;5.786;2024-03-22T14:27:38;9.20;97.20
57242;DHT22;43095;53.302;5.786;2024-03-22T14:30:05;9.20;97.00
57242;DHT22;43095;53.302;5.786;2024-03-22T14:32:36;9.10;96.40
57242;DHT22;43095;53.302;5.786;2024-03-22T14:35:02;9.20;97.20
57242;DHT22;43095;53.302;5.786;2024-03-22T14:37:28;9.20;97.90
57242;DHT22;43095;53.302;5.786;2024-03-22T14:39:55;9.10;96.80
57242;DHT22;43095;53.302;5.786;2024-03-22T14:42:21;9.10;97.40
57242;DHT22;43095;53.302;5.786;2024-03-22T14:44:47;9.00;97.60
57242;DHT22;43095;53.302;5.786;2024-03-22T14:47:14;9.00;98.20
57242;DHT22;43095;53.302;5.786;2024-03-22T14:49:40;9.00;97.80
57242;DHT22;43095;53.302;5.786;2024-03-22T14:52:07;9.00;97.50
57242;DHT22;43095;53.302;5.786;2024-03-22T14:54:34;9.00;96.10
57242;DHT22;43095;53.302;5.786;2024-03-22T14:57:00;9.00;96.00
57242;DHT22;43095;53.302;5.786;2024-03-22T14:59:30;9.00;95.70
57242;DHT22;43095;53.302;5.786;2024-03-22T15:01:56;9.00;95.40
57242;DHT22;43095;53.302;5.786;2024-03-22T15:04:23;9.00;94.10
57242;DHT22;43095;53.302;5.786;2024-03-22T15:06:50;9.10;94.40
57242;DHT22;43095;53.302;5.786;2024-03-22T15:09:17;9.10;93.50
57242;DHT22;43095;53.302;5.786;2024-03-22T15:11:45;9.10;93.20
57242;DHT22;43095;53.302;5.786;2024-03-22T15:14:12;9.10;93.20
57242;DHT22;43095;53.302;5.786;2024-03-22T15:16:39;9.00;92.90
57242;DHT22;43095;53.302;5.786;2024-03-22T15:19:08;9.00;92.50
57242;DHT22;43095;53.302;5.786;2024-03-22T15:21:38;9.00;92.50
57242;DHT22;43095;53.302;5.786;2024-03-22T15:24:05;9.00;93.20
57242;DHT22;43095;53.302;5.786;2024-03-22T15:26:32;9.00;93.40
57242;DHT22;43095;53.302;5.786;2024-03-22T15:29:03;9.00;93.30
57242;DHT22;43095;53.302;5.786;2024-03-22T15:31:43;8.90;92.20
57242;DHT22;43095;53.302;5.786;2024-03-22T15:34:13;8.80;93.20
57242;DHT22;43095;53.302;5.786;2024-03-22T15:36:42;8.80;93.30
57242;DHT22;43095;53.302;5.786;2024-03-22T15:39:08;8.80;91.80
57242;DHT22;43095;53.302;5.786;2024-03-22T15:41:36;8.70;92.10
57242;DHT22;43095;53.302;5.786;2024-03-22T15:44:02;8.70;92.00